Terminal Aerodrome Forecast
Issued by NWS Charleston, WV

Home | Current Version | Previous Version | Text Only | Print | Product List | Glossary On
Versions: 1 2 3 4 5 6 7 8 9 10 11 12 13 14 15 16 17 18 19 20 21 22
000
FTUS41 KRLX 211700
TAFCRW
TAF
KCRW 211720Z 2118/2218 00000KT P6SM SCT200
     FM220200 VRB03KT P6SM SCT050
     FM220700 14007KT P6SM SCT050
     FM221000 15007KT P6SM BKN050
     FM221400 15004KT P6SM BKN025=

USA.gov is the U.S. government's official web portal to all federal, state and local government web resources and services.